Time;durP1;ratioP1;P1;durP2;ratioP2;P2;SDS_P1;SDS_P2;PMS_P1;PMS_P2;Temp;Humidity;BMP_temperature;BMP_pressure;BME280_temperature;BME280_humidity;BME280_pressure;Samples;Min_cycle;Max_cycle;Signal;HPM_P1;HPM_P2
2023/09/29 00:00:14;;;;;;;5.90;3.28;;;;;;;16.36;69.45;63688.94;5066189;28;20583;-79
2023/09/29 00:02:44;;;;;;;9.48;2.90;;;;;;;16.41;67.44;63696.19;5069877;28;20228;-78
2023/09/29 00:05:13;;;;;;;4.63;3.08;;;;;;;16.42;66.48;63692.59;5051144;28;20232;-78
2023/09/29 00:07:42;;;;;;;3.65;3.40;;;;;;;16.40;66.82;63690.53;5048389;28;20279;-80
2023/09/29 00:10:13;;;;;;;7.57;3.88;;;;;;;16.41;66.54;63693.63;5063468;28;20426;-78
2023/09/29 00:12:41;;;;;;;4.90;2.75;;;;;;;16.41;66.07;63694.13;5068743;28;20208;-79
2023/09/29 00:15:11;;;;;;;3.00;2.70;;;;;;;16.51;64.96;63704.03;5071231;28;20217;-78
2023/09/29 00:17:39;;;;;;;4.47;2.90;;;;;;;16.51;65.76;63704.03;5053065;28;20227;-79
2023/09/29 00:20:17;;;;;;;6.45;2.65;;;;;;;16.45;67.48;63698.28;5068290;28;20224;-77
2023/09/29 00:22:45;;;;;;;6.70;2.85;;;;;;;16.37;66.52;63689.97;5069144;28;20334;-78
2023/09/29 00:25:12;;;;;;;3.45;3.15;;;;;;;16.42;66.47;63697.75;5058687;28;20220;-80
2023/09/29 00:27:39;;;;;;;6.82;3.17;;;;;;;16.41;66.48;63696.19;5050878;28;20209;-79
2023/09/29 00:30:09;;;;;;;7.93;2.63;;;;;;;16.34;66.37;63686.88;5050372;28;20280;-82
2023/09/29 00:32:37;;;;;;;4.18;2.65;;;;;;;16.26;65.89;63678.53;5052227;28;20255;-78
2023/09/29 00:35:08;;;;;;;12.23;3.20;;;;;;;16.28;65.23;63685.22;5048639;28;20255;-79
2023/09/29 00:37:40;;;;;;;6.45;3.08;;;;;;;16.23;64.85;63680.56;5050411;28;20212;-79
2023/09/29 00:40:12;;;;;;;4.80;2.78;;;;;;;16.16;66.62;63668.66;5055034;28;20471;-79
2023/09/29 00:42:39;;;;;;;8.43;2.95;;;;;;;16.14;66.22;63664.00;5067550;28;20248;-79
2023/09/29 00:45:08;;;;;;;3.47;2.65;;;;;;;16.09;66.82;63669.09;5055563;28;20221;-79
2023/09/29 00:47:37;;;;;;;7.88;3.03;;;;;;;16.03;66.63;63655.13;5066331;28;20505;-78
2023/09/29 00:50:04;;;;;;;6.07;2.72;;;;;;;16.01;67.15;63652.53;5065323;28;20247;-79
2023/09/29 00:52:32;;;;;;;6.22;3.22;;;;;;;15.96;66.48;63652.47;5049304;28;20376;-79
2023/09/29 00:55:02;;;;;;;6.47;2.50;;;;;;;15.94;66.69;63645.78;5054379;28;20221;-79
2023/09/29 00:57:29;;;;;;;4.80;2.22;;;;;;;15.86;66.65;63636.91;5049162;28;20198;-79
2023/09/29 00:59:57;;;;;;;7.03;2.80;;;;;;;15.80;66.86;63628.66;5064231;28;20251;-78
2023/09/29 01:02:25;;;;;;;3.28;3.08;;;;;;;15.80;66.96;63633.25;5063025;28;20299;-79
2023/09/29 01:04:53;;;;;;;8.07;2.75;;;;;;;15.80;67.23;63631.22;5050966;28;20222;-79
2023/09/29 01:07:22;;;;;;;9.40;2.92;;;;;;;15.73;66.62;63631.66;5047868;28;20190;-78
2023/09/29 01:09:49;;;;;;;8.68;2.75;;;;;;;15.72;68.19;63627.53;5049017;28;20226;-78
2023/09/29 01:12:28;;;;;;;5.60;2.70;;;;;;;15.69;67.92;63617.22;5058533;28;20204;-79
2023/09/29 01:14:55;;;;;;;7.38;2.88;;;;;;;15.72;66.74;63622.88;5073103;28;20232;-78
2023/09/29 01:17:24;;;;;;;7.78;2.67;;;;;;;15.66;66.66;63621.78;5074066;28;20216;-80
2023/09/29 01:19:51;;;;;;;7.18;2.55;;;;;;;15.61;66.48;63608.38;5071588;28;20222;-78
2023/09/29 01:22:19;;;;;;;18.42;3.22;;;;;;;15.55;66.85;63605.22;5054460;28;20233;-79
2023/09/29 01:24:47;;;;;;;7.28;3.25;;;;;;;15.57;66.19;63609.88;5052813;28;20471;-80
2023/09/29 01:27:15;;;;;;;6.38;2.22;;;;;;;15.55;66.95;63602.16;5052842;28;20202;-80
2023/09/29 01:29:44;;;;;;;4.82;2.80;;;;;;;15.52;67.10;63604.66;5059937;28;20236;-78
2023/09/29 01:32:13;;;;;;;3.38;2.30;;;;;;;15.51;67.41;63600.56;5052594;28;20194;-78
2023/09/29 01:34:40;;;;;;;4.15;3.47;;;;;;;15.48;66.78;63597.44;5052528;28;20236;-79
2023/09/29 01:37:13;;;;;;;7.00;2.55;;;;;;;15.48;67.17;63600.00;5054755;28;20268;-79
2023/09/29 01:39:40;;;;;;;7.05;3.05;;;;;;;15.43;67.20;63592.75;5057097;28;20331;-79
2023/09/29 01:42:08;;;;;;;8.18;3.33;;;;;;;15.35;67.02;63583.88;5068013;28;20259;-79
2023/09/29 01:44:35;;;;;;;6.28;3.00;;;;;;;15.38;67.45;63589.56;5073286;28;20217;-80
2023/09/29 01:47:03;;;;;;;5.60;2.97;;;;;;;15.38;67.42;63589.56;5062477;28;20197;-81
2023/09/29 01:49:30;;;;;;;5.78;2.85;;;;;;;15.42;68.19;63596.31;5070074;28;20209;-80
2023/09/29 01:51:57;;;;;;;4.32;2.47;;;;;;;15.34;68.98;63582.84;5073303;28;20414;-77
2023/09/29 01:54:24;;;;;;;8.27;2.63;;;;;;;15.27;67.69;63575.59;5072980;28;20281;-78
2023/09/29 01:56:52;;;;;;;5.10;2.65;;;;;;;15.27;67.13;63578.16;5059384;28;20209;-78
2023/09/29 01:59:21;;;;;;;8.70;2.70;;;;;;;15.26;68.01;63577.09;5073060;28;20217;-78
2023/09/29 02:01:48;;;;;;;5.95;2.75;;;;;;;15.20;69.15;63570.88;5069829;28;20275;-78
2023/09/29 02:04:16;;;;;;;6.53;2.35;;;;;;;15.14;69.04;63567.72;5072855;28;20217;-77
2023/09/29 02:06:44;;;;;;;5.03;2.72;;;;;;;15.18;69.00;63571.34;5052072;28;20209;-82
2023/09/29 02:09:11;;;;;;;8.43;2.65;;;;;;;15.11;69.28;63562.03;5050715;28;20627;-79
2023/09/29 02:11:40;;;;;;;7.60;3.20;;;;;;;15.17;69.01;63568.25;5051022;28;20209;-80
2023/09/29 02:14:07;;;;;;;5.10;2.38;;;;;;;15.20;68.69;63568.31;5056028;28;20197;-78
2023/09/29 02:16:36;;;;;;;6.05;2.38;;;;;;;15.26;68.58;63575.06;5068700;28;20216;-78
2023/09/29 02:19:03;;;;;;;10.65;2.72;;;;;;;15.26;68.95;63577.63;5053353;28;20306;-79
2023/09/29 02:21:33;;;;;;;3.88;2.88;;;;;;;15.26;68.68;63582.22;5049828;28;20198;-78
2023/09/29 02:24:06;;;;;;;2.60;2.40;;;;;;;15.32;68.40;63581.31;5053457;28;20235;-79
2023/09/29 02:26:34;;;;;;;6.53;2.95;;;;;;;15.45;67.17;63596.88;5050363;28;20225;-78
2023/09/29 02:29:02;;;;;;;6.20;2.88;;;;;;;15.48;67.29;63603.06;5051003;28;20193;-78
2023/09/29 02:31:30;;;;;;;8.60;2.80;;;;;;;15.57;66.94;63606.78;5050099;28;20186;-79
2023/09/29 02:33:59;;;;;;;5.68;2.40;;;;;;;15.65;66.84;63615.59;5049337;28;20241;-78
2023/09/29 02:36:26;;;;;;;6.57;2.90;;;;;;;15.69;66.21;63622.34;5051311;28;20198;-77
2023/09/29 02:38:53;;;;;;;3.65;2.33;;;;;;;15.75;65.91;63622.94;5050679;28;20193;-79
2023/09/29 02:41:20;;;;;;;4.22;2.40;;;;;;;15.71;67.78;63621.84;5050011;28;20482;-78
2023/09/29 02:43:47;;;;;;;2.88;2.67;;;;;;;15.75;68.09;63623.47;5066902;28;20236;-79
2023/09/29 02:46:15;;;;;;;3.80;2.38;;;;;;;15.82;66.53;63637.91;5065224;28;20204;-78
2023/09/29 02:48:45;;;;;;;3.85;2.78;;;;;;;15.83;65.38;63634.34;5068988;28;20224;-78
2023/09/29 02:51:21;;;;;;;7.40;3.13;;;;;;;15.90;68.71;63633.38;5063807;28;20215;-79
2023/09/29 02:53:49;;;;;;;4.15;2.65;;;;;;;15.89;68.27;63634.91;5055228;28;20228;-80
2023/09/29 02:56:17;;;;;;;5.13;2.20;;;;;;;15.90;68.25;63641.63;5071080;28;20424;-79
2023/09/29 02:58:46;;;;;;;3.22;2.65;;;;;;;15.86;70.13;63634.34;5054223;28;20216;-79
2023/09/29 03:01:16;;;;;;;5.55;2.58;;;;;;;15.88;70.25;63636.97;5061621;28;20235;-78
2023/09/29 03:03:47;;;;;;;4.25;2.85;;;;;;;15.88;68.67;63641.56;5052428;28;20587;-80
2023/09/29 03:06:19;;;;;;;3.70;2.42;;;;;;;15.89;67.66;63640.56;5050031;28;20396;-79
2023/09/29 03:08:49;;;;;;;3.30;2.65;;;;;;;15.88;67.70;63641.56;5048899;28;20193;-77
2023/09/29 03:11:17;;;;;;;5.93;2.80;;;;;;;15.82;67.77;63633.31;5068986;28;20223;-78
2023/09/29 03:13:44;;;;;;;4.72;2.40;;;;;;;15.85;67.18;63638.47;5070206;28;20200;-78
2023/09/29 03:16:12;;;;;;;4.43;2.95;;;;;;;15.84;67.12;63637.44;5070716;28;20219;-79
2023/09/29 03:18:40;;;;;;;4.53;2.67;;;;;;;15.84;68.40;63637.44;5065178;28;20197;-77
2023/09/29 03:21:07;;;;;;;6.25;3.38;;;;;;;15.84;68.07;63635.38;5061144;28;20236;-79
2023/09/29 03:23:36;;;;;;;9.15;3.17;;;;;;;15.77;69.20;63630.16;5050936;28;20231;-80
2023/09/29 03:26:05;;;;;;;7.72;2.72;;;;;;;15.81;67.98;63632.25;5053514;28;20217;-77
2023/09/29 03:28:34;;;;;;;4.85;3.00;;;;;;;15.74;68.28;63624.97;5059949;28;20201;-80
2023/09/29 03:31:04;;;;;;;5.53;2.75;;;;;;;15.72;68.41;63620.31;5052531;28;20221;-79
2023/09/29 03:33:32;;;;;;;6.18;2.58;;;;;;;15.66;68.14;63616.13;5050707;28;20219;-78
2023/09/29 03:35:59;;;;;;;6.00;2.13;;;;;;;15.64;67.01;63619.72;5046844;28;20220;-78
2023/09/29 03:38:26;;;;;;;4.45;2.85;;;;;;;15.66;66.54;63616.13;5049546;28;20194;-78
2023/09/29 03:40:54;;;;;;;3.30;2.53;;;;;;;15.60;66.33;63609.91;5049566;28;20223;-79
2023/09/29 03:43:23;;;;;;;3.50;2.42;;;;;;;15.64;66.17;63614.59;5046309;28;20229;-80
2023/09/29 03:45:50;;;;;;;6.85;2.95;;;;;;;15.61;65.74;63613.50;5047662;28;20218;-79
2023/09/29 03:48:18;;;;;;;5.53;2.35;;;;;;;15.65;65.25;63620.75;5047458;28;20284;-79
2023/09/29 03:50:45;;;;;;;5.35;2.30;;;;;;;15.64;64.72;63612.00;5050019;28;20236;-77
2023/09/29 03:53:12;;;;;;;5.22;2.40;;;;;;;15.66;64.97;63621.28;5049304;28;20190;-80
2023/09/29 03:55:39;;;;;;;6.43;2.20;;;;;;;15.66;65.42;63616.13;5064143;28;20220;-79
2023/09/29 03:58:06;;;;;;;9.50;2.80;;;;;;;15.61;65.84;63616.06;5058814;28;20558;-78
2023/09/29 04:00:34;;;;;;;4.53;3.03;;;;;;;15.61;65.77;63613.50;5049776;28;20213;-77
2023/09/29 04:03:01;;;;;;;4.47;2.25;;;;;;;15.56;66.57;63610.88;5061927;28;20225;-78
2023/09/29 04:05:29;;;;;;;7.57;2.50;;;;;;;15.53;66.59;63602.63;5053166;28;20287;-79
2023/09/29 04:07:56;;;;;;;6.55;2.80;;;;;;;15.55;65.98;63605.22;5062976;28;20198;-78
2023/09/29 04:10:23;;;;;;;5.70;2.45;;;;;;;15.54;65.89;63603.66;5061559;28;20292;-78
2023/09/29 04:12:51;;;;;;;4.13;2.60;;;;;;;15.51;66.59;63598.50;5065787;28;20216;-78
2023/09/29 04:15:18;;;;;;;4.25;2.30;;;;;;;15.45;65.97;63594.81;5068406;28;20217;-81
2023/09/29 04:17:47;;;;;;;5.22;2.80;;;;;;;15.53;65.28;63602.63;5067680;28;20213;-79
2023/09/29 04:20:15;;;;;;;4.70;2.35;;;;;;;15.56;65.05;63608.31;5069593;28;20389;-79
2023/09/29 04:22:43;;;;;;;4.03;2.95;;;;;;;15.53;64.83;63600.56;5065944;28;20232;-80
2023/09/29 04:25:11;;;;;;;5.97;2.28;;;;;;;15.48;65.12;63595.38;5059521;28;20221;-77
2023/09/29 04:27:40;;;;;;;3.97;2.30;;;;;;;15.43;65.26;63592.75;5053527;28;20209;-78
2023/09/29 04:30:09;;;;;;;6.85;2.22;;;;;;;15.49;64.88;63595.91;5049853;28;20218;-79
2023/09/29 04:32:37;;;;;;;9.52;2.20;;;;;;;15.53;63.93;63602.63;5060040;28;20613;-78
2023/09/29 04:35:06;;;;;;;5.90;2.17;;;;;;;15.63;63.88;63610.47;5065474;28;20259;-79
2023/09/29 04:37:34;;;;;;;8.70;2.78;;;;;;;15.60;64.13;63609.91;5069581;28;20505;-78
2023/09/29 04:40:02;;;;;;;7.15;2.22;;;;;;;15.65;63.61;63617.69;5049084;28;20210;-79
2023/09/29 04:42:29;;;;;;;2.65;1.98;;;;;;;15.69;62.95;63619.25;5062206;28;20233;-78
2023/09/29 04:44:56;;;;;;;5.38;2.40;;;;;;;15.75;62.98;63630.63;5048362;28;20218;-79
2023/09/29 04:47:23;;;;;;;3.42;2.15;;;;;;;15.79;62.88;63639.94;5048601;28;20217;-78
2023/09/29 04:49:50;;;;;;;8.50;2.65;;;;;;;15.87;62.79;63637.97;5053406;28;20256;-77
2023/09/29 04:52:20;;;;;;;9.15;2.75;;;;;;;15.92;61.55;63648.31;5058152;28;20205;-79
2023/09/29 04:54:48;;;;;;;4.70;2.63;;;;;;;15.97;61.05;63650.94;5049512;28;20225;-77
2023/09/29 04:57:15;;;;;;;5.43;2.75;;;;;;;16.01;59.79;63650.47;5060611;28;20197;-78
2023/09/29 04:59:42;;;;;;;3.88;2.28;;;;;;;16.02;60.99;63653.56;5054057;28;20217;-77
2023/09/29 05:02:09;;;;;;;4.63;2.40;;;;;;;15.99;64.51;63650.97;5049070;28;20201;-77
2023/09/29 05:04:36;;;;;;;4.25;3.60;;;;;;;15.92;66.36;63643.69;5045935;28;20293;-78
2023/09/29 05:07:04;;;;;;;3.92;2.55;;;;;;;15.96;66.74;63650.41;5053786;28;20220;-78
2023/09/29 05:09:32;;;;;;;10.73;3.30;;;;;;;16.00;66.71;63654.56;5066473;28;20220;-79
2023/09/29 05:11:59;;;;;;;9.70;3.40;;;;;;;15.96;67.59;63644.78;5066971;28;20204;-78
2023/09/29 05:14:26;;;;;;;5.60;3.17;;;;;;;15.94;68.71;63648.34;5060752;28;20227;-77
2023/09/29 05:16:54;;;;;;;7.30;3.67;;;;;;;15.97;68.34;63651.47;5055844;28;20205;-79
2023/09/29 05:19:21;;;;;;;19.98;5.55;;;;;;;16.03;71.12;63654.63;5047989;28;20236;-79
2023/09/29 05:21:48;;;;;;;7.72;3.67;;;;;;;16.11;76.53;63668.59;5047316;28;20220;-76
2023/09/29 05:24:15;;;;;;;9.40;3.70;;;;;;;16.18;70.73;63670.75;5045451;28;20237;-78
2023/09/29 05:26:43;;;;;;;88.03;63.85;;;;;;;16.29;71.52;63681.66;5051510;28;20246;-77
2023/09/29 05:29:11;;;;;;;6.70;3.78;;;;;;;16.33;71.19;63690.44;5065293;28;20217;-78
2023/09/29 05:31:38;;;;;;;8.38;4.18;;;;;;;16.42;70.57;63692.59;5052237;28;20200;-79
2023/09/29 05:34:05;;;;;;;6.18;3.47;;;;;;;16.50;69.46;63703.50;5045540;28;20221;-78
2023/09/29 05:36:32;;;;;;;7.72;3.92;;;;;;;16.40;70.72;63692.56;5044545;28;20236;-79
2023/09/29 05:38:59;;;;;;;8.80;3.40;;;;;;;16.54;70.66;63705.09;5046517;28;20194;-79
2023/09/29 05:41:26;;;;;;;7.65;3.42;;;;;;;16.68;67.82;63729.44;5065547;28;20200;-76
2023/09/29 05:43:55;;;;;;;11.60;5.70;;;;;;;16.65;76.29;63719.13;5065709;28;20239;-77
2023/09/29 05:46:21;;;;;;;12.15;4.70;;;;;;;16.47;76.48;63700.41;5064541;28;20260;-78
2023/09/29 05:48:48;;;;;;;10.70;4.53;;;;;;;16.57;76.00;63707.69;5058391;28;20228;-77
2023/09/29 05:51:15;;;;;;;14.73;4.90;;;;;;;16.64;74.92;63720.66;5045867;28;20418;-78
2023/09/29 05:53:42;;;;;;;6.68;3.92;;;;;;;16.81;74.40;63738.34;5045230;28;20514;-79
2023/09/29 05:56:09;;;;;;;9.45;3.83;;;;;;;17.00;68.27;63755.03;5047450;28;20221;-77
2023/09/29 05:58:38;;;;;;;8.35;4.00;;;;;;;16.96;65.92;63753.44;5049553;28;20260;-77
2023/09/29 06:01:11;;;;;;;7.88;4.32;;;;;;;17.10;66.13;63768.53;5060886;28;20408;-78
2023/09/29 06:03:40;;;;;;;15.00;3.85;;;;;;;17.26;65.18;63782.09;5057475;28;20242;-78
2023/09/29 06:06:08;;;;;;;8.18;3.90;;;;;;;17.32;65.81;63788.34;5069634;28;20216;-77
2023/09/29 06:08:36;;;;;;;14.15;4.45;;;;;;;17.46;65.60;63802.41;5064062;28;20265;-78
2023/09/29 06:11:05;;;;;;;10.85;3.67;;;;;;;17.51;65.88;63810.19;5050962;28;20229;-78
2023/09/29 06:13:32;;;;;;;10.25;3.80;;;;;;;17.71;65.29;63831.00;5067787;28;20256;-79
2023/09/29 06:16:02;;;;;;;11.65;4.15;;;;;;;17.87;64.91;63848.22;5069191;28;20288;-77
2023/09/29 06:18:31;;;;;;;11.35;3.58;;;;;;;17.78;65.81;63833.69;5057098;28;20197;-78
2023/09/29 06:20:58;;;;;;;12.45;4.97;;;;;;;17.95;65.21;63853.44;5056210;28;20212;-78
2023/09/29 06:23:25;;;;;;;19.60;4.07;;;;;;;18.07;64.86;63865.94;5060517;28;20296;-77
2023/09/29 06:25:58;;;;;;;8.68;4.00;;;;;;;18.20;64.38;63882.06;5048461;28;20281;-78
2023/09/29 06:28:25;;;;;;;9.13;3.90;;;;;;;18.17;63.64;63879.44;5049095;28;20268;-77
2023/09/29 06:30:53;;;;;;;17.08;3.90;;;;;;;18.37;62.14;63899.78;5056898;28;20255;-77
2023/09/29 06:33:21;;;;;;;9.90;3.25;;;;;;;18.55;61.15;63915.44;5070550;28;20192;-78
2023/09/29 06:35:50;;;;;;;8.23;3.85;;;;;;;18.74;58.13;63932.69;5071158;28;20230;-79
2023/09/29 06:38:18;;;;;;;12.25;3.65;;;;;;;19.00;58.52;63965.44;5066789;28;20391;-78
2023/09/29 06:40:46;;;;;;;10.68;3.25;;;;;;;19.12;55.81;63977.97;5049936;28;20240;-78
2023/09/29 06:43:14;;;;;;;11.20;3.25;;;;;;;19.36;55.53;63995.25;5050457;28;20256;-79
2023/09/29 06:45:41;;;;;;;8.05;3.28;;;;;;;19.68;55.68;64033.28;5050774;28;20336;-79
2023/09/29 06:48:09;;;;;;;9.00;3.17;;;;;;;19.93;53.72;64061.44;5055759;28;20228;-80
2023/09/29 06:50:36;;;;;;;14.63;3.38;;;;;;;20.11;48.82;64080.72;5069935;28;20476;-78
2023/09/29 06:53:06;;;;;;;4.15;2.85;;;;;;;20.21;48.47;64088.59;5071047;28;20197;-78
2023/09/29 06:55:32;;;;;;;9.80;3.72;;;;;;;20.10;50.91;64079.16;5069252;28;20217;-77
2023/09/29 06:58:00;;;;;;;13.05;3.50;;;;;;;19.85;50.71;64050.47;5067819;28;20205;-79
2023/09/29 07:00:27;;;;;;;4.50;2.90;;;;;;;19.96;46.70;64064.56;5071733;28;20280;-77
2023/09/29 07:02:54;;;;;;;7.75;3.70;;;;;;;19.99;47.78;64068.22;5066657;28;20209;-77
2023/09/29 07:05:21;;;;;;;2.78;2.53;;;;;;;20.12;49.03;64078.66;5049964;28;20271;-79
2023/09/29 07:07:48;;;;;;;12.02;3.53;;;;;;;20.20;49.09;64084.97;5048062;28;20204;-78
2023/09/29 07:10:18;;;;;;;9.27;3.33;;;;;;;20.42;46.41;64107.91;5054977;28;20605;-79
2023/09/29 07:12:45;;;;;;;11.40;2.90;;;;;;;20.54;48.41;64122.50;5067317;28;20197;-77
2023/09/29 07:15:12;;;;;;;8.40;3.55;;;;;;;20.44;48.70;64112.06;5069664;28;20544;-79
2023/09/29 07:17:41;;;;;;;9.73;3.58;;;;;;;20.39;48.66;64109.97;5061556;28;20545;-78
2023/09/29 07:20:10;;;;;;;9.20;2.80;;;;;;;20.30;45.87;64100.03;5054824;28;20225;-77
2023/09/29 07:22:37;;;;;;;10.63;3.17;;;;;;;20.25;43.82;64090.19;5067093;28;20208;-77
2023/09/29 07:25:04;;;;;;;9.15;3.63;;;;;;;20.40;43.54;64110.47;5060801;28;20237;-79
2023/09/29 07:27:35;;;;;;;10.80;2.83;;;;;;;20.31;44.35;64099.03;5054508;28;20202;-79
2023/09/29 07:30:03;;;;;;;7.75;3.05;;;;;;;20.29;44.67;64101.59;5048825;28;20232;-78
2023/09/29 07:32:30;;;;;;;9.50;2.83;;;;;;;20.43;45.60;64114.13;5058400;28;20203;-77
2023/09/29 07:34:57;;;;;;;10.70;3.45;;;;;;;20.54;45.15;64123.03;5052813;28;20247;-78
2023/09/29 07:37:31;;;;;;;7.40;3.20;;;;;;;20.36;45.51;64106.31;5063270;28;20213;-78
2023/09/29 07:39:58;;;;;;;8.23;3.33;;;;;;;20.37;45.64;64104.75;5057912;28;20235;-78
2023/09/29 07:42:26;;;;;;;9.77;3.70;;;;;;;20.47;44.90;64123.50;5067285;28;20389;-77
2023/09/29 07:44:54;;;;;;;3.75;3.13;;;;;;;20.40;44.06;64113.06;5067053;28;20232;-79
2023/09/29 07:47:22;;;;;;;6.07;2.80;;;;;;;20.57;43.32;64125.66;5062975;28;20201;-78
2023/09/29 07:49:49;;;;;;;6.57;2.78;;;;;;;20.63;44.50;64131.91;5057546;28;20222;-79
2023/09/29 07:52:16;;;;;;;8.75;3.10;;;;;;;20.59;43.31;64127.72;5060951;28;20197;-79
2023/09/29 07:54:44;;;;;;;6.47;3.38;;;;;;;20.93;44.14;64163.25;5054905;28;20296;-79
2023/09/29 07:57:12;;;;;;;5.22;3.05;;;;;;;21.02;44.60;64174.72;5053174;28;20582;-78
2023/09/29 07:59:38;;;;;;;8.80;3.75;;;;;;;21.35;42.75;64206.56;5052585;28;20213;-78
2023/09/29 08:02:07;;;;;;;8.00;3.22;;;;;;;21.27;42.61;64198.22;5052208;28;20198;-77
2023/09/29 08:04:34;;;;;;;9.05;3.70;;;;;;;21.39;42.44;64208.16;5047956;28;20545;-78
2023/09/29 08:07:02;;;;;;;4.82;3.42;;;;;;;21.51;42.74;64223.81;5050847;28;20209;-79
2023/09/29 08:09:29;;;;;;;9.10;3.05;;;;;;;21.52;41.96;64226.91;5048053;28;20221;-79
2023/09/29 08:11:57;;;;;;;7.05;3.42;;;;;;;21.43;41.26;64212.84;5049390;28;20257;-79
2023/09/29 08:14:24;;;;;;;6.50;2.60;;;;;;;21.56;39.33;64231.09;5048291;28;20218;-78
2023/09/29 08:16:52;;;;;;;10.57;3.85;;;;;;;21.77;39.75;64253.06;5049779;28;20201;-79
2023/09/29 08:19:24;;;;;;;5.65;3.40;;;;;;;21.64;37.78;64239.47;5063995;28;20242;-79
2023/09/29 08:21:54;;;;;;;2.72;2.15;;;;;;;21.68;37.40;64246.75;5088158;28;20200;-78
2023/09/29 08:24:24;;;;;;;5.13;2.60;;;;;;;21.76;38.67;64249.94;5054889;28;20305;-78
2023/09/29 08:26:51;;;;;;;5.38;3.03;;;;;;;22.12;35.80;64289.13;5054795;28;20276;-79
2023/09/29 08:29:20;;;;;;;6.07;2.20;;;;;;;22.12;35.94;64289.66;5069434;28;20243;-81
2023/09/29 08:31:47;;;;;;;5.93;2.67;;;;;;;22.13;36.98;64295.88;5068530;28;20196;-78
2023/09/29 08:34:14;;;;;;;4.53;2.38;;;;;;;22.05;37.62;64281.81;5069933;28;20217;-80
2023/09/29 08:36:45;;;;;;;6.05;2.53;;;;;;;22.19;36.80;64291.78;5055594;28;20201;-80
2023/09/29 08:39:12;;;;;;;3.70;2.05;;;;;;;22.16;35.20;64293.31;5062704;28;20224;-79
2023/09/29 08:41:47;;;;;;;3.42;2.50;;;;;;;22.33;35.36;64311.59;5068045;28;20256;-77
2023/09/29 08:44:17;;;;;;;2.75;2.00;;;;;;;22.35;35.38;64313.69;5048269;28;20250;-79
2023/09/29 08:46:48;;;;;;;2.38;2.05;;;;;;;22.50;35.25;64331.44;5047746;28;20205;-79
2023/09/29 08:49:18;;;;;;;5.35;2.38;;;;;;;22.46;34.66;64325.19;5057393;28;20291;-77
2023/09/29 08:51:53;;;;;;;5.30;2.10;;;;;;;22.57;34.63;64336.19;5054287;28;20201;-76
2023/09/29 08:54:21;;;;;;;5.50;2.35;;;;;;;22.35;35.35;64307.97;5052467;28;20308;-78
2023/09/29 08:56:52;;;;;;;10.00;3.35;;;;;;;22.61;36.61;64337.75;5062304;28;20239;-78
2023/09/29 08:59:24;;;;;;;6.25;2.67;;;;;;;22.38;36.62;64316.81;5048608;28;20228;-79
2023/09/29 09:01:55;;;;;;;7.10;2.55;;;;;;;21.93;37.08;64269.78;5049339;28;20390;-77
2023/09/29 09:04:22;;;;;;;8.90;2.83;;;;;;;21.72;37.01;64248.34;5057479;28;20299;-79
2023/09/29 09:06:50;;;;;;;3.92;2.67;;;;;;;21.76;37.68;64252.53;5069506;28;20195;-79
2023/09/29 09:09:23;;;;;;;3.63;2.45;;;;;;;21.98;37.30;64269.84;5055218;28;20224;-78
2023/09/29 09:11:51;;;;;;;3.53;2.38;;;;;;;22.02;36.29;64276.09;5065484;28;20204;-78
2023/09/29 09:14:21;;;;;;;6.80;2.05;;;;;;;22.02;36.62;64281.28;5065442;28;20285;-78
2023/09/29 09:16:50;;;;;;;3.40;2.22;;;;;;;22.17;37.08;64294.88;5062066;28;20205;-78
2023/09/29 09:19:17;;;;;;;4.95;2.63;;;;;;;22.04;37.15;64283.88;5058485;28;20468;-78
2023/09/29 09:21:46;;;;;;;17.52;3.03;;;;;;;22.20;36.81;64298.00;5057963;28;20201;-79
2023/09/29 09:24:23;;;;;;;3.65;2.50;;;;;;;22.34;36.29;64307.44;5067163;28;20255;-78
2023/09/29 09:26:50;;;;;;;4.65;2.20;;;;;;;22.47;35.57;64326.22;5049399;28;20204;-79
2023/09/29 09:29:19;;;;;;;2.78;2.08;;;;;;;22.60;35.93;64339.84;5048150;28;20225;-79
2023/09/29 09:31:50;;;;;;;4.15;2.78;;;;;;;22.65;36.18;64342.47;5064180;28;20276;-79
2023/09/29 09:34:19;;;;;;;5.40;2.65;;;;;;;22.62;35.29;64344.00;5071928;28;20220;-78
2023/09/29 09:36:51;;;;;;;3.75;2.40;;;;;;;22.66;34.10;64346.09;5071749;28;20199;-79
2023/09/29 09:39:25;;;;;;;5.47;2.40;;;;;;;22.87;35.00;64370.13;5071194;28;20227;-79
2023/09/29 09:41:53;;;;;;;2.38;2.17;;;;;;;23.21;34.18;64403.09;5073231;28;20209;-80
2023/09/29 09:44:25;;;;;;;2.47;2.28;;;;;;;23.05;35.07;64385.84;5071263;28;20601;-78
2023/09/29 09:47:00;;;;;;;2.40;2.25;;;;;;;22.98;34.25;64381.66;5065191;28;20212;-80
2023/09/29 09:49:38;;;;;;;2.85;2.45;;;;;;;22.78;34.57;64361.25;5059890;28;20417;-79
2023/09/29 09:52:16;;;;;;;4.40;2.58;;;;;;;22.55;34.08;64329.44;5052666;28;20220;-78
2023/09/29 09:54:54;;;;;;;7.78;2.70;;;;;;;22.63;33.99;64342.97;5070587;28;20227;-80
2023/09/29 09:57:25;;;;;;;3.10;2.50;;;;;;;22.76;34.11;64359.16;5054228;28;20224;-79
2023/09/29 09:59:54;;;;;;;8.00;2.60;;;;;;;22.66;34.39;64343.50;5058401;28;20221;-82
2023/09/29 10:02:24;;;;;;;2.78;2.55;;;;;;;22.69;34.41;64348.72;5059416;28;20202;-81
2023/09/29 10:04:53;;;;;;;9.48;3.33;;;;;;;22.77;34.64;64357.63;5058580;28;20239;-81
2023/09/29 10:07:26;;;;;;;3.50;2.65;;;;;;;22.90;34.10;64371.22;5056890;28;20203;-81
2023/09/29 10:09:55;;;;;;;5.53;2.17;;;;;;;23.07;34.44;64391.06;5057115;28;20224;-82
2023/09/29 10:12:27;;;;;;;3.63;3.05;;;;;;;23.09;33.72;64387.44;5065153;28;20271;-82
2023/09/29 10:14:56;;;;;;;7.13;2.63;;;;;;;23.14;33.76;64397.88;5066872;28;20223;-79
2023/09/29 10:17:24;;;;;;;6.07;2.75;;;;;;;23.06;33.30;64384.28;5053215;28;20197;-78
2023/09/29 10:19:54;;;;;;;7.53;2.97;;;;;;;22.85;33.61;64365.44;5054278;28;20247;-80
2023/09/29 10:22:28;;;;;;;4.63;2.63;;;;;;;22.67;33.52;64341.44;5052511;28;20186;-79
2023/09/29 10:24:59;;;;;;;5.38;2.92;;;;;;;22.67;33.73;64349.22;5060611;28;20296;-79
2023/09/29 10:27:32;;;;;;;7.18;3.17;;;;;;;22.71;34.06;64353.94;5068259;28;20197;-81
2023/09/29 10:30:16;;;;;;;4.68;2.60;;;;;;;22.67;34.51;64344.56;5062499;28;20440;-80
2023/09/29 10:32:45;;;;;;;3.97;2.08;;;;;;;22.63;35.36;64342.44;5071094;28;20448;-79
2023/09/29 10:35:18;;;;;;;2.83;2.60;;;;;;;22.75;34.40;64355.53;5057380;28;20228;-80
2023/09/29 10:37:54;;;;;;;3.33;2.70;;;;;;;22.85;34.48;64368.56;5052258;28;20220;-79
2023/09/29 10:40:31;;;;;;;8.45;2.90;;;;;;;22.99;35.31;64377.50;5056922;28;20235;-79
2023/09/29 10:43:02;;;;;;;5.00;3.25;;;;;;;23.05;35.24;64388.97;5068472;28;20204;-79
2023/09/29 10:45:31;;;;;;;7.43;2.90;;;;;;;23.20;35.30;64404.13;5062970;28;20542;-80
2023/09/29 10:48:05;;;;;;;5.43;3.00;;;;;;;23.14;34.96;64395.78;5054691;28;20264;-79
2023/09/29 10:50:41;;;;;;;9.77;3.38;;;;;;;23.14;33.83;64395.78;5060388;28;20217;-81
2023/09/29 10:53:12;;;;;;;12.40;3.67;;;;;;;23.30;33.48;64409.94;5067261;28;20263;-80
2023/09/29 10:55:45;;;;;;;5.70;3.08;;;;;;;23.32;34.11;64417.22;5053607;28;20221;-80
2023/09/29 10:58:13;;;;;;;7.72;3.53;;;;;;;23.33;34.94;64412.56;5051771;28;20196;-81
2023/09/29 11:00:46;;;;;;;10.93;3.28;;;;;;;23.12;34.30;64398.38;5051452;28;20217;-80
2023/09/29 11:03:15;;;;;;;5.45;2.85;;;;;;;23.15;34.08;64399.44;5070878;28;20193;-77
2023/09/29 11:05:49;;;;;;;3.58;3.20;;;;;;;23.22;33.28;64404.16;5069896;28;20236;-77
2023/09/29 11:08:19;;;;;;;4.70;3.15;;;;;;;23.20;33.78;64401.53;5062348;28;20200;-78
2023/09/29 11:10:59;;;;;;;8.02;3.97;;;;;;;23.19;33.60;64403.09;5059088;28;20225;-78
2023/09/29 11:13:27;;;;;;;7.78;2.80;;;;;;;23.23;34.71;64405.19;5054015;28;20208;-79
2023/09/29 11:16:00;;;;;;;6.20;3.53;;;;;;;23.27;33.66;64406.78;5067760;28;20267;-80
2023/09/29 11:18:31;;;;;;;9.70;3.60;;;;;;;23.27;33.97;64406.78;5069048;28;20184;-78
2023/09/29 11:21:08;;;;;;;11.52;3.70;;;;;;;23.08;34.59;64388.97;5058497;28;20556;-79
2023/09/29 11:23:41;;;;;;;7.20;2.90;;;;;;;22.96;34.35;64376.97;5069471;28;20258;-77
2023/09/29 11:26:13;;;;;;;5.43;3.13;;;;;;;23.10;33.61;64389.00;5068101;28;20374;-82
2023/09/29 11:28:42;;;;;;;6.13;3.22;;;;;;;23.08;34.18;64388.97;5048899;28;20232;-77
2023/09/29 11:31:11;;;;;;;4.20;3.47;;;;;;;22.99;34.22;64379.59;5050138;28;20244;-77
2023/09/29 11:33:39;;;;;;;7.15;3.30;;;;;;;22.99;34.52;64380.09;5053608;28;20231;-76
2023/09/29 11:36:16;;;;;;;3.65;3.33;;;;;;;23.10;34.11;64391.59;5047885;28;20601;-78
2023/09/29 11:38:43;;;;;;;6.65;3.72;;;;;;;22.92;34.40;64374.84;5064016;28;20204;-79